Preston, MN

6:39 AM CDT on October 17, 2017 (GMT -0500)
Preston

Weather History for KFKA - December, 2012

Change the Weather History Date:

Monday, December 3, 2012

  Actual Average (KRST) Record (KRST)
Temperature  
Mean Temperature 54 °F -  
Max Temperature 65 °F 27 °F 62 °F (2012)
Min Temperature 41 °F 11 °F -30 °F (1940)
Degree Days  
Heating Degree Days 12    
Growing Degree Days 4 (Base 50)    
Moisture  
Dew Point 47 °F    
Average Humidity 79    
Maximum Humidity 90    
Minimum Humidity 62    
Precipitation  
Precipitation 0.00 in - - ()
Sea Level Pressure  
Sea Level Pressure 29.76 in    
Wind  
Wind Speed 15 mph (SW)    
Max Wind Speed 21 mph    
Max Gust Speed 28 mph    
Visibility 5 miles    
Events Fog    
Averages and records for this station are not official NWS values.
T = Trace of Precipitation, MM = Missing Value Source: NWS Daily Summary

Daily Weather History Graph

Daily Weather History Graph

Search for Another Location

Airport or City:

Trip Planner

Search our weather history database for the weather conditions in past years. The results will help you decide how hot, cold, wet, or windy it might be!

Date:

Astronomy

Dec. 03, 2012 Rise Set
Actual Time 7:25 AM CST 4:32 PM CST
Civil Twilight 6:52 AM CST 5:04 PM CST
Nautical Twilight 6:16 AM CST 5:40 PM CST
Astronomical Twilight 5:42 AM CST 6:15 PM CST
Moon 9:24 PM CST (12/3) 10:44 AM CST (12/3)
Length of Visible Light 10h 11m
Length of Day
9h 07m
Waning Gibbous, 78% of the Moon is Illuminated
Dec 3
Waning Gibbous
Dec 6
Last Quarter
Dec 13
New
Dec 19
First Quarter
Dec 28
Full

Hourly Weather History & Observations

Time (CST) Temp. Windchill Dew Point Humidity Pressure Visibility Wind Dir Wind Speed Gust Speed Precip Events Conditions
12:10 AM 46.4 °F 39.8 °F 43.3 °F 89% 29.87 in 0.2 mi South 16.1 mph 23.0 mph N/A Fog Fog
12:30 AM 47.7 °F - 44.6 °F 89% 29.87 in 0.2 mi South 13.8 mph - N/A Fog Fog
12:49 AM 48.9 °F - 45.9 °F 89% 29.85 in 0.2 mi South 18.4 mph 23.0 mph N/A Fog Fog
1:10 AM 49.3 °F - 46.4 °F 90% 29.85 in 0.2 mi South 17.3 mph 26.5 mph N/A Fog Fog
1:30 AM 49.6 °F - 46.6 °F 89% 29.85 in 0.2 mi South 15.0 mph 23.0 mph N/A Fog Fog
1:50 AM 50.2 °F - 47.1 °F 89% 29.85 in 0.2 mi South 17.3 mph 25.3 mph N/A Fog Fog
2:10 AM 50.4 °F - 47.3 °F 89% 29.84 in 1.0 mi South 19.6 mph 26.5 mph N/A   Overcast
2:30 AM 50.4 °F - 47.3 °F 89% 29.84 in 1.5 mi South 15.0 mph 21.9 mph N/A   Overcast
2:50 AM 50.9 °F - 47.7 °F 89% 29.82 in 1.0 mi SSE 13.8 mph 19.6 mph N/A   Overcast
3:10 AM 50.9 °F - 47.8 °F 89% 29.82 in 0.2 mi SSE 13.8 mph - N/A Fog Fog
3:29 AM 50.9 °F - 47.7 °F 89% 29.80 in 0.2 mi South 16.1 mph 25.3 mph N/A Fog Fog
3:50 AM 51.1 °F - 48.2 °F 90% 29.79 in 0.8 mi SSE 10.4 mph - N/A   Overcast
4:10 AM 51.3 °F - 48.2 °F 89% 29.78 in 1.2 mi SSE 11.5 mph - N/A   Overcast
4:50 AM 52.0 °F - 49.1 °F 90% 29.76 in 1.0 mi SSE 11.5 mph 20.7 mph N/A   Overcast
5:10 AM 52.2 °F - 49.1 °F 89% 29.75 in 1.0 mi SSE 12.7 mph - N/A   Overcast
5:30 AM 52.7 °F - 49.5 °F 89% 29.75 in 0.8 mi SSE 11.5 mph - N/A   Overcast
5:50 AM 52.9 °F - 50.0 °F 90% 29.74 in 0.8 mi SSE 11.5 mph 17.3 mph N/A   Overcast
6:10 AM 53.6 °F - 50.4 °F 89% 29.74 in 0.5 mi SSE 11.5 mph - N/A Fog Fog
6:29 AM 54.0 °F - 50.9 °F 89% 29.73 in 0.5 mi South 10.4 mph - N/A Fog Fog
6:50 AM 54.5 °F - 51.4 °F 89% 29.71 in 1.5 mi SSE 13.8 mph 19.6 mph N/A   Overcast
7:10 AM 54.9 °F - 51.8 °F 89% 29.70 in 2.0 mi South 11.5 mph 17.3 mph N/A   Overcast
7:30 AM 55.0 °F - 52.0 °F 89% 29.69 in 1.5 mi SSE 13.8 mph 19.6 mph N/A   Overcast
7:50 AM 55.6 °F - 52.7 °F 90% 29.68 in 1.0 mi South 17.3 mph 23.0 mph N/A   Overcast
8:10 AM 55.9 °F - 52.9 °F 89% 29.68 in 0.8 mi South 18.4 mph 27.6 mph N/A   Overcast
8:30 AM 56.3 °F - 53.4 °F 90% 29.67 in 0.5 mi South 18.4 mph 27.6 mph N/A Fog Fog
8:50 AM 56.5 °F - 53.6 °F 90% 29.67 in 0.5 mi South 17.3 mph 24.2 mph N/A Fog Fog
9:09 AM 57.0 °F - 53.8 °F 89% 29.66 in 1.0 mi South 18.4 mph 21.9 mph N/A   Overcast
9:30 AM 57.2 °F - 54.0 °F 89% 29.66 in 1.0 mi South 18.4 mph 23.0 mph N/A   Overcast
9:50 AM 57.7 °F - 54.7 °F 90% 29.66 in 1.8 mi South 19.6 mph 24.2 mph N/A   Overcast
10:10 AM 58.5 °F - 55.4 °F 90% 29.66 in 2.5 mi South 17.3 mph 21.9 mph N/A   Overcast
10:30 AM 59.0 °F - 55.9 °F 90% 29.66 in 3.0 mi South 17.3 mph 24.2 mph N/A   Overcast
10:50 AM 59.2 °F - 56.3 °F 90% 29.64 in 4.0 mi South 17.3 mph 25.3 mph N/A   Overcast
11:30 AM 59.7 °F - 56.5 °F 89% 29.63 in 4.0 mi SSW 16.1 mph 19.6 mph N/A   Overcast
11:50 AM 59.9 °F - 56.7 °F 89% 29.62 in 5.0 mi SSW 13.8 mph 19.6 mph N/A   Overcast
12:10 PM 61.0 °F - 57.2 °F 87% 29.62 in 5.0 mi South 15.0 mph 21.9 mph N/A   Overcast
12:30 PM 62.6 °F - 57.4 °F 83% 29.61 in 7.0 mi SSW 17.3 mph 23.0 mph N/A   Overcast
12:50 PM 64.2 °F - 56.7 °F 76% 29.59 in 10.0 mi SSW 19.6 mph 27.6 mph N/A   Mostly Cloudy
1:10 PM 65.3 °F - 55.9 °F 72% 29.60 in 10.0 mi SSW 17.3 mph 23.0 mph N/A   Mostly Cloudy
1:30 PM 65.3 °F - 55.6 °F 71% 29.60 in 10.0 mi SW 13.8 mph 21.9 mph N/A   Overcast
1:50 PM 64.8 °F - 54.9 °F 70% 29.61 in 10.0 mi SW 11.5 mph 21.9 mph N/A   Overcast
2:10 PM 64.8 °F - 54.9 °F 70% 29.61 in 10.0 mi SW 12.7 mph 18.4 mph N/A   Overcast
2:29 PM 62.2 °F - 51.8 °F 69% 29.62 in 10.0 mi West 17.3 mph 24.2 mph N/A   Overcast
2:50 PM 60.8 °F - 50.2 °F 68% 29.65 in 10.0 mi West 18.4 mph 27.6 mph N/A   Overcast
3:10 PM 59.0 °F - 48.6 °F 68% 29.66 in 7.0 mi WNW 16.1 mph 23.0 mph N/A   Mostly Cloudy
3:29 PM 57.6 °F - 45.9 °F 65% 29.68 in 10.0 mi WNW 20.7 mph 25.3 mph N/A   Mostly Cloudy
3:50 PM 55.6 °F - 43.3 °F 63% 29.70 in 10.0 mi West 15.0 mph 21.9 mph N/A   Scattered Clouds
4:10 PM 54.7 °F - 41.9 °F 62% 29.71 in 10.0 mi WNW 17.3 mph 21.9 mph N/A   Clear
4:50 PM 53.4 °F - 40.6 °F 62% 29.75 in 10.0 mi NW 15.0 mph - N/A   Clear
5:10 PM 52.7 °F - 40.5 °F 63% 29.76 in 10.0 mi WNW 15.0 mph 19.6 mph N/A   Clear
5:50 PM 52.3 °F - 41.0 °F 65% 29.79 in 10.0 mi WNW 11.5 mph - N/A   Overcast
6:10 PM 52.2 °F - 40.5 °F 64% 29.81 in 10.0 mi WNW 16.1 mph 23.0 mph N/A   Overcast
6:30 PM 51.6 °F - 39.7 °F 64% 29.82 in 10.0 mi WNW 16.1 mph - N/A   Mostly Cloudy
6:50 PM 50.0 °F - 39.4 °F 67% 29.85 in 10.0 mi WNW 18.4 mph 24.2 mph N/A   Clear
7:09 PM 49.3 °F - 37.9 °F 65% 29.86 in 10.0 mi WNW 19.6 mph - N/A   Clear
7:30 PM 48.2 °F - 36.9 °F 65% 29.87 in 10.0 mi WNW 15.0 mph - N/A   Clear
7:49 PM 47.3 °F - 35.2 °F 63% 29.87 in 10.0 mi WNW 15.0 mph - N/A   Clear
8:10 PM 46.4 °F 41.1 °F 34.7 °F 64% 29.88 in 10.0 mi WNW 11.5 mph - N/A   Clear
8:30 PM 44.4 °F 40.5 °F 34.0 °F 67% 29.89 in 10.0 mi WNW 6.9 mph - N/A   Clear
8:50 PM 43.3 °F 39.2 °F 33.8 °F 69% 29.89 in 10.0 mi WNW 6.9 mph - N/A   Clear
9:10 PM 43.7 °F 39.7 °F 33.3 °F 67% 29.90 in 10.0 mi WNW 6.9 mph - N/A   Clear
9:30 PM 43.3 °F 38.1 °F 32.7 °F 66% 29.91 in 10.0 mi WNW 9.2 mph - N/A   Clear
9:50 PM 42.8 °F 37.0 °F 32.4 °F 67% 29.92 in 10.0 mi West 10.4 mph - N/A   Clear
10:10 PM 43.2 °F 37.0 °F 32.2 °F 65% 29.93 in 10.0 mi West 11.5 mph - N/A   Clear
10:50 PM 43.3 °F 37.2 °F 31.5 °F 63% 29.94 in 10.0 mi West 11.5 mph - N/A   Clear
11:10 PM 42.3 °F 36.8 °F 30.9 °F 64% 29.95 in 10.0 mi West 9.2 mph - N/A   Clear
11:30 PM 41.9 °F 37.5 °F 30.6 °F 64% 29.96 in 10.0 mi WSW 6.9 mph - N/A   Clear